sensor_id;sensor_type;location;lat;lon;timestamp;temperature;humidity
31695;DHT22;18289;51.330;4.946;2022-08-01T00:00:34;20.60;99.90
31695;DHT22;18289;51.330;4.946;2022-08-01T00:03:00;20.60;99.90
31695;DHT22;18289;51.330;4.946;2022-08-01T00:05:25;20.60;99.90
31695;DHT22;18289;51.330;4.946;2022-08-01T00:07:51;20.60;99.90
31695;DHT22;18289;51.330;4.946;2022-08-01T00:10:18;20.60;99.90
31695;DHT22;18289;51.330;4.946;2022-08-01T00:12:45;20.60;99.90
31695;DHT22;18289;51.330;4.946;2022-08-01T00:15:14;20.60;99.90
31695;DHT22;18289;51.330;4.946;2022-08-01T00:17:40;20.50;99.90
31695;DHT22;18289;51.330;4.946;2022-08-01T00:20:09;20.50;99.90
31695;DHT22;18289;51.330;4.946;2022-08-01T00:22:35;20.50;99.90
31695;DHT22;18289;51.330;4.946;2022-08-01T00:25:02;20.50;99.90
31695;DHT22;18289;51.330;4.946;2022-08-01T00:27:28;20.50;99.90
31695;DHT22;18289;51.330;4.946;2022-08-01T00:29:54;20.50;99.90
31695;DHT22;18289;51.330;4.946;2022-08-01T00:32:20;20.50;99.90
31695;DHT22;18289;51.330;4.946;2022-08-01T00:34:45;20.50;99.90
31695;DHT22;18289;51.330;4.946;2022-08-01T00:37:11;20.40;99.90
31695;DHT22;18289;51.330;4.946;2022-08-01T00:39:37;20.50;99.90
31695;DHT22;18289;51.330;4.946;2022-08-01T00:42:07;20.50;99.90
31695;DHT22;18289;51.330;4.946;2022-08-01T00:44:33;20.50;99.90
31695;DHT22;18289;51.330;4.946;2022-08-01T00:46:59;20.50;99.90
31695;DHT22;18289;51.330;4.946;2022-08-01T00:49:25;20.50;99.90
31695;DHT22;18289;51.330;4.946;2022-08-01T00:51:51;20.50;99.90
31695;DHT22;18289;51.330;4.946;2022-08-01T00:54:16;20.50;99.90
31695;DHT22;18289;51.330;4.946;2022-08-01T00:56:42;20.50;99.90
31695;DHT22;18289;51.330;4.946;2022-08-01T00:59:09;20.50;99.90
31695;DHT22;18289;51.330;4.946;2022-08-01T01:01:36;20.50;99.90
31695;DHT22;18289;51.330;4.946;2022-08-01T01:04:02;20.40;99.90
31695;DHT22;18289;51.330;4.946;2022-08-01T01:09:26;20.50;99.90
31695;DHT22;18289;51.330;4.946;2022-08-01T01:12:22;20.50;99.90
31695;DHT22;18289;51.330;4.946;2022-08-01T01:15:06;20.50;99.90
31695;DHT22;18289;51.330;4.946;2022-08-01T01:17:51;20.50;99.90
31695;DHT22;18289;51.330;4.946;2022-08-01T01:20:21;20.50;99.90
31695;DHT22;18289;51.330;4.946;2022-08-01T01:25:45;20.50;99.90
31695;DHT22;18289;51.330;4.946;2022-08-01T01:28:35;20.40;99.90
31695;DHT22;18289;51.330;4.946;2022-08-01T01:31:08;20.40;99.90
31695;DHT22;18289;51.330;4.946;2022-08-01T01:33:37;20.40;99.90
31695;DHT22;18289;51.330;4.946;2022-08-01T01:36:07;20.40;99.90
31695;DHT22;18289;51.330;4.946;2022-08-01T01:38:37;20.50;99.90
31695;DHT22;18289;51.330;4.946;2022-08-01T01:41:07;20.40;99.90
31695;DHT22;18289;51.330;4.946;2022-08-01T01:43:35;20.40;99.90
31695;DHT22;18289;51.330;4.946;2022-08-01T01:46:03;20.40;99.90
31695;DHT22;18289;51.330;4.946;2022-08-01T01:48:30;20.30;99.90
31695;DHT22;18289;51.330;4.946;2022-08-01T01:50:56;20.30;99.90
31695;DHT22;18289;51.330;4.946;2022-08-01T01:53:23;20.40;99.90
31695;DHT22;18289;51.330;4.946;2022-08-01T01:55:52;20.40;99.90
31695;DHT22;18289;51.330;4.946;2022-08-01T01:58:20;20.40;99.90
31695;DHT22;18289;51.330;4.946;2022-08-01T02:00:47;20.40;99.90
31695;DHT22;18289;51.330;4.946;2022-08-01T02:03:14;20.30;99.90
31695;DHT22;18289;51.330;4.946;2022-08-01T02:05:41;20.30;99.90
31695;DHT22;18289;51.330;4.946;2022-08-01T02:08:08;20.20;99.90
31695;DHT22;18289;51.330;4.946;2022-08-01T02:10:35;20.20;99.90
31695;DHT22;18289;51.330;4.946;2022-08-01T02:13:05;20.20;99.90
31695;DHT22;18289;51.330;4.946;2022-08-01T02:15:33;20.20;99.90
31695;DHT22;18289;51.330;4.946;2022-08-01T02:18:01;20.10;99.90
31695;DHT22;18289;51.330;4.946;2022-08-01T02:20:29;20.10;99.90
31695;DHT22;18289;51.330;4.946;2022-08-01T02:23:03;20.10;99.90
31695;DHT22;18289;51.330;4.946;2022-08-01T02:25:39;20.10;99.90
31695;DHT22;18289;51.330;4.946;2022-08-01T02:28:10;20.10;99.90
31695;DHT22;18289;51.330;4.946;2022-08-01T02:30:43;20.10;99.90
31695;DHT22;18289;51.330;4.946;2022-08-01T02:33:23;20.10;99.90
31695;DHT22;18289;51.330;4.946;2022-08-01T02:35:52;20.10;99.90
31695;DHT22;18289;51.330;4.946;2022-08-01T02:38:23;20.10;99.90
31695;DHT22;18289;51.330;4.946;2022-08-01T02:40:50;20.10;99.90
31695;DHT22;18289;51.330;4.946;2022-08-01T02:43:21;20.10;99.90
31695;DHT22;18289;51.330;4.946;2022-08-01T02:45:53;20.10;99.90
31695;DHT22;18289;51.330;4.946;2022-08-01T02:48:20;20.10;99.90
31695;DHT22;18289;51.330;4.946;2022-08-01T02:50:51;20.10;99.90
31695;DHT22;18289;51.330;4.946;2022-08-01T02:53:19;19.90;99.90
31695;DHT22;18289;51.330;4.946;2022-08-01T02:55:46;20.00;99.90
31695;DHT22;18289;51.330;4.946;2022-08-01T02:58:15;20.00;99.90
31695;DHT22;18289;51.330;4.946;2022-08-01T03:00:43;20.10;99.90
31695;DHT22;18289;51.330;4.946;2022-08-01T03:03:11;20.10;99.90
31695;DHT22;18289;51.330;4.946;2022-08-01T03:05:38;20.20;99.90
31695;DHT22;18289;51.330;4.946;2022-08-01T03:08:06;20.10;99.90
31695;DHT22;18289;51.330;4.946;2022-08-01T03:10:36;20.20;99.90
31695;DHT22;18289;51.330;4.946;2022-08-01T03:13:04;20.20;99.90
31695;DHT22;18289;51.330;4.946;2022-08-01T03:15:34;20.20;99.90
31695;DHT22;18289;51.330;4.946;2022-08-01T03:18:03;20.10;99.90
31695;DHT22;18289;51.330;4.946;2022-08-01T03:20:30;20.10;99.90
31695;DHT22;18289;51.330;4.946;2022-08-01T03:23:01;20.10;99.90
31695;DHT22;18289;51.330;4.946;2022-08-01T03:25:29;20.10;99.90
31695;DHT22;18289;51.330;4.946;2022-08-01T03:27:59;20.00;99.90
31695;DHT22;18289;51.330;4.946;2022-08-01T03:30:27;20.00;99.90
31695;DHT22;18289;51.330;4.946;2022-08-01T03:32:53;20.00;99.90
31695;DHT22;18289;51.330;4.946;2022-08-01T03:35:20;19.90;99.90
31695;DHT22;18289;51.330;4.946;2022-08-01T03:37:50;20.10;99.90
31695;DHT22;18289;51.330;4.946;2022-08-01T03:40:20;20.00;99.90
31695;DHT22;18289;51.330;4.946;2022-08-01T03:42:54;20.00;99.90
31695;DHT22;18289;51.330;4.946;2022-08-01T03:45:27;20.00;99.90
31695;DHT22;18289;51.330;4.946;2022-08-01T03:47:59;20.00;99.90
31695;DHT22;18289;51.330;4.946;2022-08-01T03:50:27;20.00;99.90
31695;DHT22;18289;51.330;4.946;2022-08-01T03:52:54;20.00;99.90
31695;DHT22;18289;51.330;4.946;2022-08-01T03:55:23;20.00;99.90
31695;DHT22;18289;51.330;4.946;2022-08-01T03:57:50;20.00;99.90
31695;DHT22;18289;51.330;4.946;2022-08-01T04:00:17;20.00;99.90
31695;DHT22;18289;51.330;4.946;2022-08-01T04:02:46;20.00;99.90
31695;DHT22;18289;51.330;4.946;2022-08-01T04:05:11;20.00;99.90
31695;DHT22;18289;51.330;4.946;2022-08-01T04:07:37;19.90;99.90
31695;DHT22;18289;51.330;4.946;2022-08-01T04:10:08;19.90;99.90
31695;DHT22;18289;51.330;4.946;2022-08-01T04:12:34;20.00;99.90
31695;DHT22;18289;51.330;4.946;2022-08-01T04:15:00;19.90;99.90
31695;DHT22;18289;51.330;4.946;2022-08-01T04:17:25;19.80;99.90
31695;DHT22;18289;51.330;4.946;2022-08-01T04:19:51;19.90;99.90
31695;DHT22;18289;51.330;4.946;2022-08-01T04:22:17;19.90;99.90
31695;DHT22;18289;51.330;4.946;2022-08-01T04:24:47;20.00;99.90
31695;DHT22;18289;51.330;4.946;2022-08-01T04:27:22;19.90;99.90
31695;DHT22;18289;51.330;4.946;2022-08-01T04:29:49;19.90;99.90
31695;DHT22;18289;51.330;4.946;2022-08-01T04:32:18;19.90;99.90
31695;DHT22;18289;51.330;4.946;2022-08-01T04:34:46;19.90;99.90
31695;DHT22;18289;51.330;4.946;2022-08-01T04:37:14;19.80;99.90
31695;DHT22;18289;51.330;4.946;2022-08-01T04:39:42;19.80;99.90
31695;DHT22;18289;51.330;4.946;2022-08-01T04:42:10;19.80;99.90
31695;DHT22;18289;51.330;4.946;2022-08-01T04:44:37;19.90;99.90
31695;DHT22;18289;51.330;4.946;2022-08-01T04:47:03;19.90;99.90
31695;DHT22;18289;51.330;4.946;2022-08-01T04:49:36;19.80;99.90
31695;DHT22;18289;51.330;4.946;2022-08-01T04:52:02;19.80;99.90
31695;DHT22;18289;51.330;4.946;2022-08-01T04:54:30;19.80;99.90
31695;DHT22;18289;51.330;4.946;2022-08-01T04:56:59;19.80;99.90
31695;DHT22;18289;51.330;4.946;2022-08-01T04:59:29;19.90;99.90
31695;DHT22;18289;51.330;4.946;2022-08-01T05:02:25;19.90;99.90
31695;DHT22;18289;51.330;4.946;2022-08-01T05:04:53;19.80;99.90
31695;DHT22;18289;51.330;4.946;2022-08-01T05:07:20;19.80;99.90
31695;DHT22;18289;51.330;4.946;2022-08-01T05:09:46;19.90;99.90
31695;DHT22;18289;51.330;4.946;2022-08-01T05:12:12;20.00;99.90
31695;DHT22;18289;51.330;4.946;2022-08-01T05:14:38;20.00;99.90
31695;DHT22;18289;51.330;4.946;2022-08-01T05:17:05;20.00;99.90
31695;DHT22;18289;51.330;4.946;2022-08-01T05:19:34;20.00;99.90
31695;DHT22;18289;51.330;4.946;2022-08-01T05:22:01;20.10;99.90
31695;DHT22;18289;51.330;4.946;2022-08-01T05:24:30;20.20;99.90
31695;DHT22;18289;51.330;4.946;2022-08-01T05:26:56;20.20;99.90
31695;DHT22;18289;51.330;4.946;2022-08-01T05:29:23;20.30;99.90
31695;DHT22;18289;51.330;4.946;2022-08-01T05:31:48;20.30;99.90
31695;DHT22;18289;51.330;4.946;2022-08-01T05:34:14;20.30;99.90
31695;DHT22;18289;51.330;4.946;2022-08-01T05:36:40;20.30;99.90
31695;DHT22;18289;51.330;4.946;2022-08-01T05:39:06;20.30;99.90
31695;DHT22;18289;51.330;4.946;2022-08-01T05:41:31;20.30;99.90
31695;DHT22;18289;51.330;4.946;2022-08-01T05:43:57;20.30;99.90
31695;DHT22;18289;51.330;4.946;2022-08-01T05:46:23;20.30;99.90
31695;DHT22;18289;51.330;4.946;2022-08-01T05:48:48;20.30;99.90
31695;DHT22;18289;51.330;4.946;2022-08-01T05:51:14;20.20;99.90
31695;DHT22;18289;51.330;4.946;2022-08-01T05:53:40;20.10;99.90
31695;DHT22;18289;51.330;4.946;2022-08-01T05:56:06;20.10;99.90
31695;DHT22;18289;51.330;4.946;2022-08-01T05:58:31;20.10;99.90
31695;DHT22;18289;51.330;4.946;2022-08-01T06:00:57;20.30;99.90
31695;DHT22;18289;51.330;4.946;2022-08-01T06:03:23;20.30;99.90
31695;DHT22;18289;51.330;4.946;2022-08-01T06:05:51;20.20;99.90
31695;DHT22;18289;51.330;4.946;2022-08-01T06:08:17;20.20;99.90
31695;DHT22;18289;51.330;4.946;2022-08-01T06:10:43;20.20;99.90
31695;DHT22;18289;51.330;4.946;2022-08-01T06:13:09;20.10;99.90
31695;DHT22;18289;51.330;4.946;2022-08-01T06:15:34;20.20;99.90
31695;DHT22;18289;51.330;4.946;2022-08-01T06:18:00;20.30;99.90
31695;DHT22;18289;51.330;4.946;2022-08-01T06:20:26;20.40;99.90
31695;DHT22;18289;51.330;4.946;2022-08-01T06:22:52;20.60;99.90
31695;DHT22;18289;51.330;4.946;2022-08-01T06:25:18;20.80;99.90
31695;DHT22;18289;51.330;4.946;2022-08-01T06:27:44;20.80;99.90
31695;DHT22;18289;51.330;4.946;2022-08-01T06:30:10;20.90;99.90
31695;DHT22;18289;51.330;4.946;2022-08-01T06:32:36;20.90;99.90
31695;DHT22;18289;51.330;4.946;2022-08-01T06:35:03;21.10;99.90
31695;DHT22;18289;51.330;4.946;2022-08-01T06:37:30;21.10;99.90
31695;DHT22;18289;51.330;4.946;2022-08-01T06:40:06;21.10;99.90
31695;DHT22;18289;51.330;4.946;2022-08-01T06:42:33;21.20;99.90
31695;DHT22;18289;51.330;4.946;2022-08-01T06:45:07;21.20;99.90
31695;DHT22;18289;51.330;4.946;2022-08-01T06:47:33;21.20;99.90
31695;DHT22;18289;51.330;4.946;2022-08-01T06:49:59;21.20;99.90
31695;DHT22;18289;51.330;4.946;2022-08-01T06:52:25;21.20;99.90
31695;DHT22;18289;51.330;4.946;2022-08-01T06:54:51;21.30;99.90
31695;DHT22;18289;51.330;4.946;2022-08-01T06:57:17;21.50;99.90
31695;DHT22;18289;51.330;4.946;2022-08-01T06:59:43;21.70;99.90
31695;DHT22;18289;51.330;4.946;2022-08-01T07:02:08;21.80;99.90
31695;DHT22;18289;51.330;4.946;2022-08-01T07:04:34;22.10;99.90
31695;DHT22;18289;51.330;4.946;2022-08-01T07:07:00;22.00;99.90
31695;DHT22;18289;51.330;4.946;2022-08-01T07:09:26;22.10;99.90
31695;DHT22;18289;51.330;4.946;2022-08-01T07:11:53;22.10;99.90
31695;DHT22;18289;51.330;4.946;2022-08-01T07:14:22;22.10;99.90
31695;DHT22;18289;51.330;4.946;2022-08-01T07:16:48;21.90;99.90
31695;DHT22;18289;51.330;4.946;2022-08-01T07:19:14;21.90;99.90
31695;DHT22;18289;51.330;4.946;2022-08-01T07:21:40;22.10;99.90
31695;DHT22;18289;51.330;4.946;2022-08-01T07:24:07;22.30;99.90
31695;DHT22;18289;51.330;4.946;2022-08-01T07:26:33;22.30;99.90
31695;DHT22;18289;51.330;4.946;2022-08-01T07:28:59;22.20;99.90
31695;DHT22;18289;51.330;4.946;2022-08-01T07:31:25;22.30;99.90
31695;DHT22;18289;51.330;4.946;2022-08-01T07:33:51;22.30;99.90
31695;DHT22;18289;51.330;4.946;2022-08-01T07:36:17;22.40;99.90
31695;DHT22;18289;51.330;4.946;2022-08-01T07:38:44;22.50;99.90
31695;DHT22;18289;51.330;4.946;2022-08-01T07:41:10;22.60;99.90
31695;DHT22;18289;51.330;4.946;2022-08-01T07:43:36;22.70;99.90
31695;DHT22;18289;51.330;4.946;2022-08-01T07:46:03;22.90;99.90
31695;DHT22;18289;51.330;4.946;2022-08-01T07:48:29;22.90;99.90
31695;DHT22;18289;51.330;4.946;2022-08-01T07:50:55;23.00;99.90
31695;DHT22;18289;51.330;4.946;2022-08-01T07:53:21;23.00;99.90
31695;DHT22;18289;51.330;4.946;2022-08-01T07:55:47;23.10;99.90
31695;DHT22;18289;51.330;4.946;2022-08-01T07:58:13;23.10;99.90
31695;DHT22;18289;51.330;4.946;2022-08-01T08:00:39;23.30;99.90
31695;DHT22;18289;51.330;4.946;2022-08-01T08:03:05;23.20;99.90
31695;DHT22;18289;51.330;4.946;2022-08-01T08:05:31;23.30;99.90
31695;DHT22;18289;51.330;4.946;2022-08-01T08:08:06;23.30;99.90
31695;DHT22;18289;51.330;4.946;2022-08-01T08:10:32;23.20;99.90
31695;DHT22;18289;51.330;4.946;2022-08-01T08:12:58;23.30;99.90
31695;DHT22;18289;51.330;4.946;2022-08-01T08:15:24;23.40;99.90
31695;DHT22;18289;51.330;4.946;2022-08-01T08:17:50;23.20;99.90
31695;DHT22;18289;51.330;4.946;2022-08-01T08:20:15;23.20;99.90
31695;DHT22;18289;51.330;4.946;2022-08-01T08:22:41;23.10;99.90
31695;DHT22;18289;51.330;4.946;2022-08-01T08:25:08;23.10;99.90
31695;DHT22;18289;51.330;4.946;2022-08-01T08:27:35;23.40;99.90
31695;DHT22;18289;51.330;4.946;2022-08-01T08:30:02;23.50;99.90
31695;DHT22;18289;51.330;4.946;2022-08-01T08:32:30;23.70;99.90
31695;DHT22;18289;51.330;4.946;2022-08-01T08:34:56;23.80;99.90
31695;DHT22;18289;51.330;4.946;2022-08-01T08:37:22;23.50;99.90
31695;DHT22;18289;51.330;4.946;2022-08-01T08:39:48;23.40;99.90
31695;DHT22;18289;51.330;4.946;2022-08-01T08:42:13;23.20;99.90
31695;DHT22;18289;51.330;4.946;2022-08-01T08:44:42;23.10;99.90
31695;DHT22;18289;51.330;4.946;2022-08-01T08:47:13;23.10;99.90
31695;DHT22;18289;51.330;4.946;2022-08-01T08:49:39;23.10;99.90
31695;DHT22;18289;51.330;4.946;2022-08-01T08:52:07;23.40;99.90
31695;DHT22;18289;51.330;4.946;2022-08-01T08:54:37;23.60;99.90
31695;DHT22;18289;51.330;4.946;2022-08-01T08:57:04;23.70;99.90
31695;DHT22;18289;51.330;4.946;2022-08-01T08:59:31;23.60;99.90
31695;DHT22;18289;51.330;4.946;2022-08-01T09:01:57;23.30;99.90
31695;DHT22;18289;51.330;4.946;2022-08-01T09:04:25;23.20;99.90
31695;DHT22;18289;51.330;4.946;2022-08-01T09:06:52;23.30;99.90
31695;DHT22;18289;51.330;4.946;2022-08-01T09:09:17;23.50;99.90
31695;DHT22;18289;51.330;4.946;2022-08-01T09:11:43;23.70;99.90
31695;DHT22;18289;51.330;4.946;2022-08-01T09:14:15;24.20;99.90
31695;DHT22;18289;51.330;4.946;2022-08-01T09:16:47;24.60;99.90
31695;DHT22;18289;51.330;4.946;2022-08-01T09:19:25;24.80;99.90
31695;DHT22;18289;51.330;4.946;2022-08-01T09:22:05;24.90;99.90
31695;DHT22;18289;51.330;4.946;2022-08-01T09:24:32;25.00;99.90
31695;DHT22;18289;51.330;4.946;2022-08-01T09:26:59;25.20;99.90
31695;DHT22;18289;51.330;4.946;2022-08-01T09:29:28;25.40;99.90
31695;DHT22;18289;51.330;4.946;2022-08-01T09:31:55;25.40;99.90
31695;DHT22;18289;51.330;4.946;2022-08-01T09:34:27;25.40;99.90
31695;DHT22;18289;51.330;4.946;2022-08-01T09:36:55;25.20;99.90
31695;DHT22;18289;51.330;4.946;2022-08-01T09:39:28;25.00;99.90
31695;DHT22;18289;51.330;4.946;2022-08-01T09:41:56;25.10;99.90
31695;DHT22;18289;51.330;4.946;2022-08-01T09:44:39;25.40;99.90
31695;DHT22;18289;51.330;4.946;2022-08-01T09:47:05;25.50;99.90
31695;DHT22;18289;51.330;4.946;2022-08-01T09:49:33;25.70;99.90
31695;DHT22;18289;51.330;4.946;2022-08-01T09:52:22;26.00;99.90
31695;DHT22;18289;51.330;4.946;2022-08-01T09:55:00;26.50;99.90
31695;DHT22;18289;51.330;4.946;2022-08-01T09:57:27;27.50;99.90
31695;DHT22;18289;51.330;4.946;2022-08-01T09:59:56;28.60;99.90
31695;DHT22;18289;51.330;4.946;2022-08-01T10:02:39;30.00;99.90
31695;DHT22;18289;51.330;4.946;2022-08-01T10:05:07;30.60;99.90
31695;DHT22;18289;51.330;4.946;2022-08-01T10:07:34;30.70;99.90
31695;DHT22;18289;51.330;4.946;2022-08-01T10:10:13;31.30;99.90
31695;DHT22;18289;51.330;4.946;2022-08-01T10:12:41;31.60;99.90
31695;DHT22;18289;51.330;4.946;2022-08-01T10:15:08;30.90;98.50
31695;DHT22;18289;51.330;4.946;2022-08-01T10:17:34;30.40;99.90
31695;DHT22;18289;51.330;4.946;2022-08-01T10:20:03;30.50;98.60
31695;DHT22;18289;51.330;4.946;2022-08-01T10:22:30;31.00;98.70
31695;DHT22;18289;51.330;4.946;2022-08-01T10:24:57;31.50;97.30
31695;DHT22;18289;51.330;4.946;2022-08-01T10:27:25;30.20;97.50
31695;DHT22;18289;51.330;4.946;2022-08-01T10:29:58;29.20;99.10
31695;DHT22;18289;51.330;4.946;2022-08-01T10:32:32;28.10;99.90
31695;DHT22;18289;51.330;4.946;2022-08-01T10:34:59;27.50;99.90
31695;DHT22;18289;51.330;4.946;2022-08-01T10:37:25;27.00;99.90
31695;DHT22;18289;51.330;4.946;2022-08-01T10:39:51;27.00;99.90
31695;DHT22;18289;51.330;4.946;2022-08-01T10:42:18;27.30;99.90
31695;DHT22;18289;51.330;4.946;2022-08-01T10:44:44;27.80;99.90
31695;DHT22;18289;51.330;4.946;2022-08-01T10:47:14;28.10;99.90
31695;DHT22;18289;51.330;4.946;2022-08-01T10:50:06;28.40;99.90
31695;DHT22;18289;51.330;4.946;2022-08-01T10:52:32;28.90;99.90
31695;DHT22;18289;51.330;4.946;2022-08-01T10:55:03;29.40;99.90
31695;DHT22;18289;51.330;4.946;2022-08-01T10:57:43;30.10;99.90
31695;DHT22;18289;51.330;4.946;2022-08-01T11:00:19;30.90;99.50
31695;DHT22;18289;51.330;4.946;2022-08-01T11:02:58;32.10;98.20
31695;DHT22;18289;51.330;4.946;2022-08-01T11:05:27;31.60;96.40
31695;DHT22;18289;51.330;4.946;2022-08-01T11:07:54;31.00;98.50
31695;DHT22;18289;51.330;4.946;2022-08-01T11:10:42;30.90;97.80
31695;DHT22;18289;51.330;4.946;2022-08-01T11:13:09;30.30;97.00
31695;DHT22;18289;51.330;4.946;2022-08-01T11:15:37;30.00;97.70
31695;DHT22;18289;51.330;4.946;2022-08-01T11:20:58;31.00;95.80
31695;DHT22;18289;51.330;4.946;2022-08-01T11:23:26;31.10;96.20
31695;DHT22;18289;51.330;4.946;2022-08-01T11:26:05;30.50;96.10
31695;DHT22;18289;51.330;4.946;2022-08-01T11:28:31;29.70;96.50
31695;DHT22;18289;51.330;4.946;2022-08-01T11:38:48;27.40;99.90
31695;DHT22;18289;51.330;4.946;2022-08-01T11:41:32;27.20;99.90
31695;DHT22;18289;51.330;4.946;2022-08-01T11:44:00;27.20;99.90
31695;DHT22;18289;51.330;4.946;2022-08-01T11:46:48;27.40;99.90
31695;DHT22;18289;51.330;4.946;2022-08-01T11:49:43;27.30;99.90
31695;DHT22;18289;51.330;4.946;2022-08-01T11:54:51;26.80;99.90
31695;DHT22;18289;51.330;4.946;2022-08-01T11:57:28;26.40;99.90
31695;DHT22;18289;51.330;4.946;2022-08-01T12:00:05;26.60;99.90
31695;DHT22;18289;51.330;4.946;2022-08-01T12:02:33;26.80;99.90
31695;DHT22;18289;51.330;4.946;2022-08-01T12:05:14;27.00;99.90
31695;DHT22;18289;51.330;4.946;2022-08-01T12:07:43;26.90;99.90
31695;DHT22;18289;51.330;4.946;2022-08-01T12:10:14;27.00;99.90
31695;DHT22;18289;51.330;4.946;2022-08-01T12:12:46;27.20;99.90
31695;DHT22;18289;51.330;4.946;2022-08-01T12:15:14;27.40;99.90
31695;DHT22;18289;51.330;4.946;2022-08-01T12:17:44;27.20;99.90
31695;DHT22;18289;51.330;4.946;2022-08-01T12:20:20;26.90;99.90
31695;DHT22;18289;51.330;4.946;2022-08-01T12:22:46;26.90;99.90
31695;DHT22;18289;51.330;4.946;2022-08-01T12:25:14;27.00;99.90
31695;DHT22;18289;51.330;4.946;2022-08-01T12:27:42;27.00;99.90
31695;DHT22;18289;51.330;4.946;2022-08-01T12:30:14;27.20;99.90
31695;DHT22;18289;51.330;4.946;2022-08-01T12:32:42;27.50;99.90
31695;DHT22;18289;51.330;4.946;2022-08-01T12:35:09;27.90;99.60
31695;DHT22;18289;51.330;4.946;2022-08-01T12:37:47;27.90;99.80
31695;DHT22;18289;51.330;4.946;2022-08-01T12:40:20;28.20;99.90
31695;DHT22;18289;51.330;4.946;2022-08-01T12:42:49;28.10;98.60
31695;DHT22;18289;51.330;4.946;2022-08-01T12:45:18;27.80;99.10
31695;DHT22;18289;51.330;4.946;2022-08-01T12:47:44;28.00;99.70
31695;DHT22;18289;51.330;4.946;2022-08-01T12:50:14;28.20;98.90
31695;DHT22;18289;51.330;4.946;2022-08-01T12:52:40;28.20;98.70
31695;DHT22;18289;51.330;4.946;2022-08-01T12:55:19;28.30;97.20
31695;DHT22;18289;51.330;4.946;2022-08-01T12:57:50;28.90;97.40
31695;DHT22;18289;51.330;4.946;2022-08-01T13:00:28;29.30;96.40
31695;DHT22;18289;51.330;4.946;2022-08-01T13:03:10;30.10;96.80
31695;DHT22;18289;51.330;4.946;2022-08-01T13:05:53;30.00;95.40
31695;DHT22;18289;51.330;4.946;2022-08-01T13:08:31;30.50;95.70
31695;DHT22;18289;51.330;4.946;2022-08-01T13:11:04;31.10;94.60
31695;DHT22;18289;51.330;4.946;2022-08-01T13:13:44;31.40;93.30
31695;DHT22;18289;51.330;4.946;2022-08-01T13:16:13;30.60;93.30
31695;DHT22;18289;51.330;4.946;2022-08-01T13:18:39;29.80;93.80
31695;DHT22;18289;51.330;4.946;2022-08-01T13:21:13;29.40;94.60
31695;DHT22;18289;51.330;4.946;2022-08-01T13:24:00;28.90;94.50
31695;DHT22;18289;51.330;4.946;2022-08-01T13:29:04;30.10;94.90
31695;DHT22;18289;51.330;4.946;2022-08-01T13:31:46;30.40;93.90
31695;DHT22;18289;51.330;4.946;2022-08-01T13:34:15;29.90;94.00
31695;DHT22;18289;51.330;4.946;2022-08-01T13:36:48;30.10;94.10
31695;DHT22;18289;51.330;4.946;2022-08-01T13:39:20;30.20;94.10
31695;DHT22;18289;51.330;4.946;2022-08-01T13:42:04;30.70;93.80
31695;DHT22;18289;51.330;4.946;2022-08-01T13:44:43;30.80;92.50
31695;DHT22;18289;51.330;4.946;2022-08-01T13:47:14;31.40;91.80
31695;DHT22;18289;51.330;4.946;2022-08-01T13:49:40;32.10;92.40
31695;DHT22;18289;51.330;4.946;2022-08-01T13:52:05;32.30;91.40
31695;DHT22;18289;51.330;4.946;2022-08-01T13:54:31;32.90;91.00
31695;DHT22;18289;51.330;4.946;2022-08-01T13:56:57;32.50;88.00
31695;DHT22;18289;51.330;4.946;2022-08-01T13:59:23;32.10;89.40
31695;DHT22;18289;51.330;4.946;2022-08-01T14:01:49;31.00;91.00
31695;DHT22;18289;51.330;4.946;2022-08-01T14:04:15;30.80;91.40
31695;DHT22;18289;51.330;4.946;2022-08-01T14:06:41;30.80;91.80
31695;DHT22;18289;51.330;4.946;2022-08-01T14:09:06;31.10;90.50
31695;DHT22;18289;51.330;4.946;2022-08-01T14:11:32;32.10;90.40
31695;DHT22;18289;51.330;4.946;2022-08-01T14:13:58;33.00;90.00
31695;DHT22;18289;51.330;4.946;2022-08-01T14:16:24;33.40;85.70
31695;DHT22;18289;51.330;4.946;2022-08-01T14:18:49;32.60;85.70
31695;DHT22;18289;51.330;4.946;2022-08-01T14:21:16;33.00;87.10
31695;DHT22;18289;51.330;4.946;2022-08-01T14:23:41;33.50;86.80
31695;DHT22;18289;51.330;4.946;2022-08-01T14:26:10;34.60;84.80
31695;DHT22;18289;51.330;4.946;2022-08-01T14:28:36;34.60;81.90
31695;DHT22;18289;51.330;4.946;2022-08-01T14:31:02;35.90;82.40
31695;DHT22;18289;51.330;4.946;2022-08-01T14:33:28;35.70;79.00
31695;DHT22;18289;51.330;4.946;2022-08-01T14:35:55;35.60;79.30
31695;DHT22;18289;51.330;4.946;2022-08-01T14:38:20;36.10;76.10
31695;DHT22;18289;51.330;4.946;2022-08-01T14:40:46;36.00;76.90
31695;DHT22;18289;51.330;4.946;2022-08-01T14:43:19;35.20;74.00
31695;DHT22;18289;51.330;4.946;2022-08-01T14:45:45;35.70;73.30
31695;DHT22;18289;51.330;4.946;2022-08-01T14:48:15;36.20;71.40
31695;DHT22;18289;51.330;4.946;2022-08-01T14:50:41;37.40;71.30
31695;DHT22;18289;51.330;4.946;2022-08-01T14:53:06;38.50;68.40
31695;DHT22;18289;51.330;4.946;2022-08-01T14:55:32;38.80;63.60
31695;DHT22;18289;51.330;4.946;2022-08-01T14:57:57;39.40;64.40
31695;DHT22;18289;51.330;4.946;2022-08-01T15:00:23;39.80;61.30
31695;DHT22;18289;51.330;4.946;2022-08-01T15:02:49;39.60;60.00
31695;DHT22;18289;51.330;4.946;2022-08-01T15:05:14;38.10;59.10
31695;DHT22;18289;51.330;4.946;2022-08-01T15:07:40;37.30;61.00
31695;DHT22;18289;51.330;4.946;2022-08-01T15:10:06;37.60;59.60
31695;DHT22;18289;51.330;4.946;2022-08-01T15:12:32;36.20;59.80
31695;DHT22;18289;51.330;4.946;2022-08-01T15:14:59;35.00;62.40
31695;DHT22;18289;51.330;4.946;2022-08-01T15:17:27;34.10;63.80
31695;DHT22;18289;51.330;4.946;2022-08-01T15:19:58;34.80;64.30
31695;DHT22;18289;51.330;4.946;2022-08-01T15:22:26;35.90;62.50
31695;DHT22;18289;51.330;4.946;2022-08-01T15:24:53;35.60;63.40
31695;DHT22;18289;51.330;4.946;2022-08-01T15:27:19;34.40;62.90
31695;DHT22;18289;51.330;4.946;2022-08-01T15:29:46;33.80;67.90
31695;DHT22;18289;51.330;4.946;2022-08-01T15:32:12;34.20;67.60
31695;DHT22;18289;51.330;4.946;2022-08-01T15:34:39;35.20;65.30
31695;DHT22;18289;51.330;4.946;2022-08-01T15:37:06;36.30;64.60
31695;DHT22;18289;51.330;4.946;2022-08-01T15:39:32;36.90;60.70
31695;DHT22;18289;51.330;4.946;2022-08-01T15:42:07;36.60;61.30
31695;DHT22;18289;51.330;4.946;2022-08-01T15:44:34;35.50;63.80
31695;DHT22;18289;51.330;4.946;2022-08-01T15:47:00;34.60;63.60
31695;DHT22;18289;51.330;4.946;2022-08-01T15:49:26;33.60;66.50
31695;DHT22;18289;51.330;4.946;2022-08-01T15:51:52;32.60;67.30
31695;DHT22;18289;51.330;4.946;2022-08-01T15:54:18;32.80;67.80
31695;DHT22;18289;51.330;4.946;2022-08-01T15:56:44;33.40;67.70
31695;DHT22;18289;51.330;4.946;2022-08-01T15:59:10;34.30;65.10
31695;DHT22;18289;51.330;4.946;2022-08-01T16:01:36;35.30;63.30